LZTT Airport Information

Runway Information
Runway 09 Length 8530 ft width 148 ft
Elevation 2355 ft Threshold 0 ft Heading 94
Runway 27 Length 8530 ft Width 148 ft
Elevation 2279 ft Threshold 0 ft Heading 274
Airport Frequencies
Type APP Name APP Frequency 121.35 MHZ
Type TWR Name TWR Frequency 121.35 MHZ
Airport Navaids
Type NDB Name Tatry Frequency 438 KHZ
Type VOR-DME Name Tatry Frequency 112100 KHZ
Type NDB Name Tatry Frequency 317 KHZ
Type NDB Name Tatry Frequency 418 KHZ
Airport Weather Information & NOTAM
ADDS - METARS form results

(0123 UTC 05 December 2021)
Data provider http://aviationweather.gov/metar/data/
 
METAR text: LZTT 050100Z 15007KT 120V190 9999 SCT050 BKN076 M03/M06 Q1002
Conditions at: LZTT (POPRAD/TATRY , SK) observed 0100 UTC 05 December 2021
Temperature: -3.0°C (27°F)
Dewpoint: -6.0°C (21°F) [RH = 80%]
Pressure (altimeter): 29.59 inches Hg (1002.0 mb)
Winds: from the SSE (150 degrees) at 8 MPH (7 knots; 3.6 m/s)
Visibility: 6 or more miles (10+ km)
Ceiling: 7600 feet AGL
Clouds: scattered clouds at 5000 feet AGL
broken clouds at 7600 feet AGL
Weather: no significant weather observed at this time

METAR text: LZTT 050030Z 16006KT 9999 FEW057 BKN076 M03/M07 Q1002
Conditions at: LZTT (POPRAD/TATRY , SK) observed 0030 UTC 05 December 2021
Temperature: -3.0°C (27°F)
Dewpoint: -7.0°C (19°F) [RH = 74%]
Pressure (altimeter): 29.59 inches Hg (1002.0 mb)
Winds: from the SSE (160 degrees) at 7 MPH (6 knots; 3.1 m/s)
Visibility: 6 or more miles (10+ km)
Ceiling: 7600 feet AGL
Clouds: few clouds at 5700 feet AGL
broken clouds at 7600 feet AGL
Weather: no significant weather observed at this time

Forecast for: LZTT (POPRAD/TATRY , SK)
Text: TAF LZTT 042300Z 0500/0600 20006KT 9999 FEW030 BKN060
Forecast period: 0000 to 0200 UTC 05 December 2021
Forecast type: FROM: standard forecast or significant change
Winds: from the SSW (200 degrees) at 7 MPH (6 knots; 3.1 m/s)
Visibility: 6 or more miles (10+ km)
Ceiling: 6000 feet AGL
Clouds: few clouds at 3000 feet AGL
broken clouds at 6000 feet AGL
Weather: no significant weather forecast for this period
Text: BECMG 0502/0504 5000 -SN SCT013 BKN020
Forecast period: 0200 UTC 05 December 2021 to 0000 UTC 06 December 2021
Forecast type: BECOMING: Conditions expected to become as follows by 0400 UTC 05 December 2021
Winds: from the SSW (200 degrees) at 7 MPH (6 knots; 3.1 m/s)
Visibility: 3 miles (5 km)
Ceiling: 2000 feet AGL
Clouds: scattered clouds at 1300 feet AGL
broken clouds at 2000 feet AGL
Weather: -SN  (light snow)
Text: TEMPO 0504/0510 1600 SN BKN007 OVC018
Forecast period: 0400 to 1000 UTC 05 December 2021
Forecast type: TEMPORARY: The following changes expected for less than half the time period
Visibility: 0.99 miles (1.59 km)
Ceiling: 700 feet AGL
Clouds: broken clouds at 700 feet AGL
overcast cloud deck at 1800 feet AGL
Weather: SN  (moderate snow)